createdAt,value
2022-09-04T00:00:02.692Z,14.89
2022-09-04T00:01:23.720Z,14.86
2022-09-04T00:02:42.182Z,14.84
2022-09-04T00:03:50.570Z,14.83
2022-09-04T00:05:01.666Z,14.82
2022-09-04T00:06:13.643Z,14.81
2022-09-04T00:07:27.549Z,14.79
2022-09-04T00:08:41.457Z,14.79
2022-09-04T00:09:55.561Z,14.78
2022-09-04T00:11:04.725Z,14.77
2022-09-04T00:12:10.021Z,14.75
2022-09-04T00:13:16.857Z,14.75
2022-09-04T00:14:22.481Z,14.75
2022-09-04T00:15:36.269Z,14.74
2022-09-04T00:16:43.726Z,14.73
2022-09-04T00:17:52.934Z,14.72
2022-09-04T00:19:02.697Z,14.72
2022-09-04T00:20:12.390Z,14.71
2022-09-04T00:21:22.323Z,14.71
2022-09-04T00:22:31.893Z,14.69
2022-09-04T00:23:42.297Z,14.68
2022-09-04T00:24:51.891Z,14.68
2022-09-04T00:26:02.621Z,14.67
2022-09-04T00:27:07.975Z,14.66
2022-09-04T00:28:18.442Z,14.65
2022-09-04T00:29:26.697Z,14.63
2022-09-04T00:30:30.193Z,14.64
2022-09-04T00:31:38.908Z,14.65
2022-09-04T00:32:46.100Z,14.64
2022-09-04T00:33:55.242Z,14.64
2022-09-04T00:35:09.234Z,14.64
2022-09-04T00:36:12.670Z,14.62
2022-09-04T00:37:23.303Z,14.62
2022-09-04T00:38:38.275Z,14.62
2022-09-04T00:39:46.945Z,14.58
2022-09-04T00:41:01.851Z,14.59
2022-09-04T00:42:21.042Z,14.58
2022-09-04T00:43:49.982Z,14.57
2022-09-04T00:45:06.947Z,14.57
2022-09-04T00:46:40.093Z,14.55
2022-09-04T00:48:03.409Z,14.55
2022-09-04T00:49:37.566Z,14.51
2022-09-04T00:50:55.675Z,14.55
2022-09-04T00:52:08.390Z,14.53
2022-09-04T00:53:29.191Z,14.54
2022-09-04T00:54:56.035Z,14.53
2022-09-04T00:56:29.660Z,14.52
2022-09-04T00:58:08.127Z,14.50
2022-09-04T00:59:18.499Z,14.47
2022-09-04T01:00:23.192Z,14.47
2022-09-04T01:01:28.150Z,14.46
2022-09-04T01:02:40.415Z,14.46
2022-09-04T01:03:59.337Z,14.46
2022-09-04T01:05:10.007Z,14.45
2022-09-04T01:06:29.721Z,14.45
2022-09-04T01:07:45.436Z,14.44
2022-09-04T01:09:26.157Z,14.43
2022-09-04T01:10:42.038Z,14.42
2022-09-04T01:11:57.162Z,14.41
2022-09-04T01:13:09.133Z,14.40
2022-09-04T01:14:18.155Z,14.40
2022-09-04T01:15:29.074Z,14.39
2022-09-04T01:16:37.495Z,14.39
2022-09-04T01:17:48.161Z,14.38
2022-09-04T01:18:58.458Z,14.38
2022-09-04T01:20:09.852Z,14.38
2022-09-04T01:21:30.956Z,14.37
2022-09-04T01:23:11.413Z,14.37
2022-09-04T01:24:33.610Z,14.37
2022-09-04T01:25:57.622Z,14.36
2022-09-04T01:27:05.716Z,14.35
2022-09-04T01:28:15.286Z,14.35
2022-09-04T01:29:26.646Z,14.36
2022-09-04T01:30:36.147Z,14.35
2022-09-04T01:31:46.698Z,14.35
2022-09-04T01:33:10.480Z,14.35
2022-09-04T01:34:32.465Z,14.35
2022-09-04T01:35:44.669Z,14.35
2022-09-04T01:36:52.346Z,14.34
2022-09-04T01:38:07.591Z,14.35
2022-09-04T01:39:09.607Z,14.35
2022-09-04T01:40:35.165Z,14.34
2022-09-04T01:41:46.149Z,14.33
2022-09-04T01:42:52.623Z,14.32
2022-09-04T01:43:55.917Z,14.32
2022-09-04T01:44:57.925Z,14.32
2022-09-04T01:46:24.122Z,14.31
2022-09-04T01:47:36.496Z,14.31
2022-09-04T01:48:46.053Z,14.30
2022-09-04T01:49:55.278Z,14.30
2022-09-04T01:51:05.934Z,14.30
2022-09-04T01:52:33.362Z,14.29
2022-09-04T01:53:37.232Z,14.29
2022-09-04T01:55:01.117Z,14.26
2022-09-04T01:56:13.075Z,14.26
2022-09-04T01:57:30.180Z,14.25
2022-09-04T01:58:43.233Z,14.25
2022-09-04T01:59:58.500Z,14.24
2022-09-04T02:01:14.137Z,14.21
2022-09-04T02:02:30.075Z,14.21
2022-09-04T02:03:42.137Z,14.21
2022-09-04T02:04:51.784Z,14.20
2022-09-04T02:06:06.020Z,14.19
2022-09-04T02:07:18.216Z,14.20
2022-09-04T02:08:39.521Z,14.19
2022-09-04T02:09:52.300Z,14.19
2022-09-04T02:11:05.532Z,14.18
2022-09-04T02:12:16.494Z,14.18
2022-09-04T02:13:29.408Z,14.18
2022-09-04T02:14:40.247Z,14.18
2022-09-04T02:15:48.158Z,14.17
2022-09-04T02:17:08.691Z,14.17
2022-09-04T02:18:20.394Z,14.16
2022-09-04T02:19:36.140Z,14.15
2022-09-04T02:20:45.865Z,14.13
2022-09-04T02:21:51.709Z,14.14
2022-09-04T02:23:04.316Z,14.13
2022-09-04T02:24:15.814Z,14.13
2022-09-04T02:25:28.855Z,14.12
2022-09-04T02:26:37.260Z,14.11
2022-09-04T02:27:50.078Z,14.11
2022-09-04T02:29:03.510Z,14.11
2022-09-04T02:30:10.236Z,14.10
2022-09-04T02:31:20.563Z,14.10
2022-09-04T02:32:29.066Z,14.09
2022-09-04T02:33:39.265Z,14.08
2022-09-04T02:34:48.916Z,14.08
2022-09-04T02:35:57.673Z,14.07
2022-09-04T02:37:07.218Z,14.06
2022-09-04T02:38:21.128Z,14.03
2022-09-04T02:39:43.223Z,14.05
2022-09-04T02:40:51.843Z,14.03
2022-09-04T02:42:05.307Z,14.03
2022-09-04T02:43:21.729Z,14.02
2022-09-04T02:44:38.605Z,14.00
2022-09-04T02:45:47.890Z,14.00
2022-09-04T02:47:01.116Z,13.98
2022-09-04T02:48:13.590Z,13.94
2022-09-04T02:49:26.728Z,13.93
2022-09-04T02:50:48.008Z,13.95
2022-09-04T02:52:01.879Z,13.93
2022-09-04T02:53:16.730Z,13.93
2022-09-04T02:54:36.597Z,13.91
2022-09-04T02:55:52.774Z,13.88
2022-09-04T02:57:07.898Z,13.88
2022-09-04T02:58:21.968Z,13.86
2022-09-04T02:59:39.020Z,13.84
2022-09-04T03:00:47.958Z,13.82
2022-09-04T03:01:57.608Z,13.81
2022-09-04T03:03:05.614Z,13.80
2022-09-04T03:04:16.037Z,13.78
2022-09-04T03:05:21.015Z,13.77
2022-09-04T03:06:33.125Z,13.76
2022-09-04T03:07:40.218Z,13.74
2022-09-04T03:08:51.621Z,13.73
2022-09-04T03:10:06.980Z,13.71
2022-09-04T03:11:18.561Z,13.70
2022-09-04T03:12:33.050Z,13.67
2022-09-04T03:13:46.315Z,13.67
2022-09-04T03:14:59.261Z,13.66
2022-09-04T03:16:11.262Z,13.65
2022-09-04T03:17:21.914Z,13.64
2022-09-04T03:18:31.205Z,13.64
2022-09-04T03:19:40.396Z,13.61
2022-09-04T03:20:49.725Z,13.60
2022-09-04T03:21:56.463Z,13.59
2022-09-04T03:23:05.693Z,13.58
2022-09-04T03:24:14.226Z,13.57
2022-09-04T03:25:53.032Z,13.57
2022-09-04T03:26:58.437Z,13.54
2022-09-04T03:28:02.298Z,13.53
2022-09-04T03:29:12.712Z,13.54
2022-09-04T03:30:18.026Z,13.49
2022-09-04T03:31:40.913Z,13.51
2022-09-04T03:32:53.632Z,13.51
2022-09-04T03:34:07.665Z,13.50
2022-09-04T03:35:20.125Z,13.50
2022-09-04T03:36:33.475Z,13.48
2022-09-04T03:37:51.880Z,13.47
2022-09-04T03:39:04.004Z,13.47
2022-09-04T03:40:34.807Z,13.47
2022-09-04T03:41:42.909Z,13.45
2022-09-04T03:42:59.602Z,13.45
2022-09-04T03:44:13.736Z,13.44
2022-09-04T03:45:24.600Z,13.43
2022-09-04T03:46:39.134Z,13.42
2022-09-04T03:47:51.149Z,13.41
2022-09-04T03:49:10.309Z,13.39
2022-09-04T03:50:24.354Z,13.39
2022-09-04T03:51:38.155Z,13.39
2022-09-04T03:52:51.076Z,13.37
2022-09-04T03:54:04.696Z,13.37
2022-09-04T03:55:21.129Z,13.36
2022-09-04T03:56:41.758Z,13.35
2022-09-04T03:57:56.062Z,13.33
2022-09-04T03:59:05.551Z,13.33
2022-09-04T04:00:12.428Z,13.30
2022-09-04T04:01:27.066Z,13.29
2022-09-04T04:02:38.094Z,13.28
2022-09-04T04:04:01.481Z,13.26
2022-09-04T04:05:22.479Z,13.25
2022-09-04T04:06:39.408Z,13.24
2022-09-04T04:07:52.667Z,13.21
2022-09-04T04:09:20.461Z,13.23
2022-09-04T04:10:33.680Z,13.21
2022-09-04T04:11:53.368Z,13.20
2022-09-04T04:13:19.353Z,13.20
2022-09-04T04:14:38.620Z,13.19
2022-09-04T04:15:55.957Z,13.17
2022-09-04T04:17:20.319Z,13.16
2022-09-04T04:18:39.066Z,13.11
2022-09-04T04:19:54.259Z,13.16
2022-09-04T04:21:06.095Z,13.15
2022-09-04T04:22:20.548Z,13.12
2022-09-04T04:23:58.447Z,13.04
2022-09-04T04:25:24.517Z,13.11
2022-09-04T04:26:40.568Z,13.10
2022-09-04T04:27:58.055Z,13.10
2022-09-04T04:29:26.809Z,13.08
2022-09-04T04:30:35.167Z,13.08
2022-09-04T04:32:09.931Z,13.07
2022-09-04T04:33:28.393Z,13.05
2022-09-04T04:34:40.253Z,13.05
2022-09-04T04:35:50.851Z,13.03
2022-09-04T04:37:00.914Z,13.02
2022-09-04T04:38:18.245Z,13.01
2022-09-04T04:39:30.456Z,13.00
2022-09-04T04:40:55.480Z,12.99
2022-09-04T04:42:11.321Z,12.97
2022-09-04T04:43:19.520Z,12.97
2022-09-04T04:44:50.610Z,12.95
2022-09-04T04:45:57.223Z,12.94
2022-09-04T04:47:08.773Z,12.93
2022-09-04T04:48:37.817Z,12.93
2022-09-04T04:49:58.511Z,12.92
2022-09-04T04:51:12.853Z,12.88
2022-09-04T04:52:29.858Z,12.91
2022-09-04T04:53:42.829Z,12.92
2022-09-04T04:55:05.544Z,12.91
2022-09-04T04:56:15.656Z,12.90
2022-09-04T04:57:30.438Z,12.90
2022-09-04T04:58:56.165Z,12.83
2022-09-04T05:00:08.385Z,12.89
2022-09-04T05:01:23.618Z,12.89
2022-09-04T05:02:31.347Z,12.89
2022-09-04T05:03:48.549Z,12.89
2022-09-04T05:04:58.151Z,12.85
2022-09-04T05:06:07.099Z,12.89
2022-09-04T05:07:18.825Z,12.89
2022-09-04T05:08:32.242Z,12.89
2022-09-04T05:09:43.248Z,12.87
2022-09-04T05:10:51.039Z,12.90
2022-09-04T05:12:00.741Z,12.90
2022-09-04T05:13:16.840Z,12.93
2022-09-04T05:14:29.947Z,12.93
2022-09-04T05:15:52.995Z,12.96
2022-09-04T05:17:10.882Z,12.97
2022-09-04T05:18:22.653Z,12.99
2022-09-04T05:19:33.839Z,13.00
2022-09-04T05:20:45.254Z,13.02
2022-09-04T05:21:55.723Z,13.04
2022-09-04T05:23:10.370Z,13.06
2022-09-04T05:24:20.864Z,13.08
2022-09-04T05:25:34.344Z,13.10
2022-09-04T05:26:45.986Z,13.10
2022-09-04T05:27:57.502Z,13.14
2022-09-04T05:29:08.032Z,13.10
2022-09-04T05:30:15.574Z,13.17
2022-09-04T05:31:28.490Z,13.19
2022-09-04T05:32:36.094Z,13.20
2022-09-04T05:33:45.965Z,13.23
2022-09-04T05:35:08.388Z,13.25
2022-09-04T05:36:20.191Z,13.29
2022-09-04T05:37:32.648Z,13.32
2022-09-04T05:38:44.675Z,13.34
2022-09-04T05:40:02.580Z,13.38
2022-09-04T05:41:07.486Z,13.40
2022-09-04T05:42:38.106Z,13.43
2022-09-04T05:43:55.234Z,13.47
2022-09-04T05:45:06.531Z,13.50
2022-09-04T05:46:19.373Z,13.53
2022-09-04T05:47:34.929Z,13.57
2022-09-04T05:48:46.938Z,13.59
2022-09-04T05:50:13.040Z,13.63
2022-09-04T05:51:52.125Z,13.67
2022-09-04T05:53:20.683Z,13.72
2022-09-04T05:54:51.465Z,13.77
2022-09-04T05:56:17.396Z,13.80
2022-09-04T05:57:33.870Z,13.84
2022-09-04T05:58:54.306Z,13.88
2022-09-04T06:00:19.708Z,13.94
2022-09-04T06:01:40.783Z,13.99
2022-09-04T06:03:09.979Z,14.03
2022-09-04T06:04:31.088Z,14.09
2022-09-04T06:05:46.910Z,14.12
2022-09-04T06:06:58.719Z,14.16
2022-09-04T06:08:15.990Z,14.19
2022-09-04T06:09:45.794Z,14.25
2022-09-04T06:11:01.190Z,14.31
2022-09-04T06:12:22.666Z,14.35
2022-09-04T06:13:45.094Z,14.15
2022-09-04T06:15:07.482Z,14.45
2022-09-04T06:16:25.746Z,14.50
2022-09-04T06:17:40.001Z,14.52
2022-09-04T06:19:00.890Z,14.61
2022-09-04T06:20:10.987Z,14.66
2022-09-04T06:21:57.868Z,14.70
2022-09-04T06:23:14.492Z,14.76
2022-09-04T06:24:39.706Z,14.81
2022-09-04T06:26:07.982Z,14.86
2022-09-04T06:27:34.568Z,14.90
2022-09-04T06:28:53.829Z,14.95
2022-09-04T06:30:06.347Z,14.97
2022-09-04T06:31:30.128Z,15.04
2022-09-04T06:32:59.205Z,15.10
2022-09-04T06:34:11.121Z,15.14
2022-09-04T06:35:33.063Z,15.18
2022-09-04T06:36:51.540Z,15.24
2022-09-04T06:38:10.241Z,15.29
2022-09-04T06:39:42.052Z,15.34
2022-09-04T06:40:57.486Z,15.38
2022-09-04T06:42:16.287Z,15.39
2022-09-04T06:43:29.633Z,15.47
2022-09-04T06:44:47.099Z,15.51
2022-09-04T06:46:02.391Z,15.53
2022-09-04T06:47:14.783Z,15.60
2022-09-04T06:48:29.666Z,15.65
2022-09-04T06:49:39.429Z,15.69
2022-09-04T06:50:53.658Z,15.72
2022-09-04T06:52:12.759Z,15.78
2022-09-04T06:53:22.618Z,15.79
2022-09-04T06:54:42.503Z,15.86
2022-09-04T06:55:53.399Z,15.91
2022-09-04T06:57:19.344Z,15.95
2022-09-04T06:58:46.121Z,16.02
2022-09-04T06:59:58.837Z,16.06
2022-09-04T07:01:08.150Z,16.10
2022-09-04T07:02:24.769Z,16.15
2022-09-04T07:03:39.700Z,16.18
2022-09-04T07:04:55.294Z,16.25
2022-09-04T07:06:04.241Z,16.28
2022-09-04T07:07:19.222Z,16.33
2022-09-04T07:08:34.044Z,16.38
2022-09-04T07:09:43.218Z,16.39
2022-09-04T07:10:50.949Z,16.45
2022-09-04T07:12:33.608Z,16.49
2022-09-04T07:13:52.277Z,16.55
2022-09-04T07:15:24.996Z,16.60
2022-09-04T07:16:37.553Z,16.64
2022-09-04T07:17:47.697Z,16.67
2022-09-04T07:19:36.033Z,16.71
2022-09-04T07:20:46.598Z,16.75
2022-09-04T07:22:00.468Z,16.80
2022-09-04T07:23:23.401Z,16.83
2022-09-04T07:24:47.622Z,16.86
2022-09-04T07:26:02.577Z,16.87
2022-09-04T07:27:15.762Z,16.88
2022-09-04T07:28:36.412Z,16.95
2022-09-04T07:29:47.888Z,16.92
2022-09-04T07:30:55.122Z,17.01
2022-09-04T07:32:04.891Z,17.05
2022-09-04T07:33:14.019Z,17.08
2022-09-04T07:34:21.480Z,17.12
2022-09-04T07:35:31.594Z,17.17
2022-09-04T07:36:40.717Z,17.21
2022-09-04T07:37:51.294Z,17.23
2022-09-04T07:39:01.769Z,17.28
2022-09-04T07:40:11.478Z,17.31
2022-09-04T07:41:23.873Z,17.35
2022-09-04T07:42:33.026Z,17.41
2022-09-04T07:43:46.139Z,17.42
2022-09-04T07:44:59.699Z,17.48
2022-09-04T07:46:10.917Z,17.49
2022-09-04T07:47:18.131Z,17.52
2022-09-04T07:48:30.518Z,17.55
2022-09-04T07:49:36.140Z,17.58
2022-09-04T07:50:51.495Z,17.60
2022-09-04T07:51:58.979Z,17.63
2022-09-04T07:53:23.387Z,17.68
2022-09-04T07:55:04.482Z,17.74
2022-09-04T07:56:14.437Z,17.80
2022-09-04T07:57:37.443Z,17.85
2022-09-04T07:58:54.738Z,17.89
2022-09-04T08:00:08.368Z,17.97
2022-09-04T08:01:49.445Z,18.03
2022-09-04T08:03:13.848Z,18.09
2022-09-04T08:04:44.033Z,18.15
2022-09-04T08:05:53.199Z,18.20
2022-09-04T08:06:59.617Z,18.23
2022-09-04T08:08:39.789Z,18.30
2022-09-04T08:09:59.721Z,18.35
2022-09-04T08:11:26.320Z,18.41
2022-09-04T08:12:57.298Z,18.47
2022-09-04T08:14:10.169Z,18.53
2022-09-04T08:15:19.902Z,18.56
2022-09-04T08:16:30.630Z,18.63
2022-09-04T08:17:59.167Z,18.67
2022-09-04T08:19:22.449Z,18.71
2022-09-04T08:20:49.418Z,18.75
2022-09-04T08:21:53.852Z,18.80
2022-09-04T08:23:05.638Z,18.84
2022-09-04T08:24:38.138Z,18.88
2022-09-04T08:25:55.676Z,18.90
2022-09-04T08:27:10.766Z,18.96
2022-09-04T08:28:35.686Z,19.00
2022-09-04T08:30:04.200Z,19.05
2022-09-04T08:31:17.201Z,19.12
2022-09-04T08:33:10.119Z,19.19
2022-09-04T08:34:48.465Z,19.28
2022-09-04T08:36:00.943Z,19.34
2022-09-04T08:37:12.883Z,19.39
2022-09-04T08:38:47.083Z,19.46
2022-09-04T08:40:04.830Z,19.53
2022-09-04T08:41:47.169Z,19.58
2022-09-04T08:43:13.813Z,19.64
2022-09-04T08:45:00.751Z,19.67
2022-09-04T08:46:27.076Z,19.72
2022-09-04T08:48:09.307Z,19.77
2022-09-04T08:50:01.023Z,19.82
2022-09-04T08:51:40.120Z,19.87
2022-09-04T08:53:18.830Z,19.93
2022-09-04T08:54:40.103Z,19.99
2022-09-04T08:56:06.365Z,20.02
2022-09-04T08:57:43.386Z,20.08
2022-09-04T08:59:33.004Z,20.11
2022-09-04T09:00:50.163Z,20.14
2022-09-04T09:02:36.992Z,20.19
2022-09-04T09:04:08.482Z,20.22
2022-09-04T09:05:55.753Z,20.26
2022-09-04T09:07:24.547Z,20.31
2022-09-04T09:09:09.628Z,20.35
2022-09-04T09:10:35.740Z,20.41
2022-09-04T09:12:15.198Z,20.46
2022-09-04T09:13:50.846Z,20.49
2022-09-04T09:15:26.299Z,20.55
2022-09-04T09:16:43.892Z,20.56
2022-09-04T09:18:17.702Z,20.61
2022-09-04T09:19:24.163Z,20.63
2022-09-04T09:20:28.931Z,20.66
2022-09-04T09:23:18.073Z,20.75
2022-09-04T09:25:04.919Z,20.80
2022-09-04T09:26:27.717Z,20.84
2022-09-04T09:28:16.426Z,20.89
2022-09-04T09:29:50.175Z,20.94
2022-09-04T09:31:28.164Z,20.98
2022-09-04T09:33:06.683Z,21.03
2022-09-04T09:34:29.165Z,21.06
2022-09-04T09:35:59.306Z,21.11
2022-09-04T09:37:44.999Z,21.17
2022-09-04T09:39:26.726Z,21.23
2022-09-04T09:41:06.486Z,21.32
2022-09-04T09:42:52.269Z,21.41
2022-09-04T09:44:28.160Z,21.49
2022-09-04T09:46:09.246Z,21.58
2022-09-04T09:47:38.111Z,21.64
2022-09-04T09:49:13.893Z,21.70
2022-09-04T09:50:49.316Z,21.74
2022-09-04T09:52:23.131Z,21.78
2022-09-04T09:53:49.108Z,21.83
2022-09-04T09:55:33.299Z,21.88
2022-09-04T09:57:20.361Z,21.94
2022-09-04T09:59:21.813Z,21.98
2022-09-04T10:00:27.563Z,22.04
2022-09-04T10:01:54.244Z,22.07
2022-09-04T10:03:49.092Z,22.11
2022-09-04T10:05:44.215Z,22.15
2022-09-04T10:07:21.209Z,22.19
2022-09-04T10:08:51.395Z,22.23
2022-09-04T10:10:24.863Z,22.28
2022-09-04T10:12:20.446Z,22.32
2022-09-04T10:13:43.800Z,22.37
2022-09-04T10:15:09.863Z,22.39
2022-09-04T10:16:34.943Z,22.44
2022-09-04T10:18:15.749Z,22.48
2022-09-04T10:20:00.295Z,22.54
2022-09-04T10:21:25.867Z,22.61
2022-09-04T10:23:04.412Z,22.68
2022-09-04T10:24:29.332Z,22.75
2022-09-04T10:26:15.208Z,22.81
2022-09-04T10:28:03.539Z,22.88
2022-09-04T10:29:26.490Z,22.92
2022-09-04T10:30:36.911Z,22.96
2022-09-04T10:31:52.369Z,22.98
2022-09-04T10:33:26.459Z,23.07
2022-09-04T10:35:03.257Z,23.07
2022-09-04T10:36:22.848Z,23.15
2022-09-04T10:37:40.420Z,23.17
2022-09-04T10:39:12.641Z,23.21
2022-09-04T10:40:43.782Z,23.28
2022-09-04T10:42:05.873Z,23.35
2022-09-04T10:43:31.045Z,23.36
2022-09-04T10:45:01.264Z,23.45
2022-09-04T10:46:13.912Z,23.51
2022-09-04T10:47:46.293Z,23.56
2022-09-04T10:49:30.467Z,23.61
2022-09-04T10:51:08.253Z,23.66
2022-09-04T10:52:43.212Z,23.68
2022-09-04T10:54:20.062Z,23.71
2022-09-04T10:55:38.044Z,23.73
2022-09-04T10:56:51.523Z,23.76
2022-09-04T10:58:30.077Z,23.79
2022-09-04T10:59:54.704Z,23.84
2022-09-04T11:01:30.660Z,23.87
2022-09-04T11:03:15.602Z,23.89
2022-09-04T11:04:36.745Z,23.91
2022-09-04T11:06:07.710Z,23.97
2022-09-04T11:07:43.969Z,23.99
2022-09-04T11:09:28.351Z,24.03
2022-09-04T11:10:46.000Z,24.01
2022-09-04T11:12:19.723Z,24.05
2022-09-04T11:14:03.716Z,24.09
2022-09-04T11:15:30.254Z,24.12
2022-09-04T11:16:57.589Z,24.16
2022-09-04T11:18:24.204Z,24.22
2022-09-04T11:20:01.807Z,24.28
2022-09-04T11:21:35.744Z,24.32
2022-09-04T11:23:20.626Z,24.34
2022-09-04T11:25:04.376Z,24.37
2022-09-04T11:26:39.305Z,24.37
2022-09-04T11:28:07.485Z,24.42
2022-09-04T11:29:25.479Z,24.48
2022-09-04T11:30:39.100Z,24.51
2022-09-04T11:32:12.211Z,24.56
2022-09-04T11:34:02.107Z,24.62
2022-09-04T11:35:42.666Z,24.67
2022-09-04T11:37:32.916Z,24.70
2022-09-04T11:39:02.003Z,24.74
2022-09-04T11:40:40.071Z,24.77
2022-09-04T11:42:20.455Z,24.61
2022-09-04T11:43:46.096Z,24.87
2022-09-04T11:45:29.123Z,24.92
2022-09-04T11:46:52.460Z,24.93
2022-09-04T11:48:22.679Z,24.99
2022-09-04T11:49:43.661Z,24.96
2022-09-04T11:51:16.641Z,25.01
2022-09-04T11:52:50.690Z,25.00
2022-09-04T11:54:24.425Z,25.02
2022-09-04T11:55:53.717Z,25.02
2022-09-04T11:57:04.848Z,25.04
2022-09-04T11:58:48.922Z,25.09
2022-09-04T12:00:06.080Z,25.14
2022-09-04T12:01:25.732Z,25.17
2022-09-04T12:02:49.809Z,25.22
2022-09-04T12:04:31.667Z,25.25
2022-09-04T12:05:50.947Z,25.25
2022-09-04T12:07:24.815Z,25.31
2022-09-04T12:09:00.517Z,25.34
2022-09-04T12:10:21.025Z,25.34
2022-09-04T12:11:47.264Z,25.35
2022-09-04T12:13:27.487Z,25.34
2022-09-04T12:14:59.372Z,25.35
2022-09-04T12:16:27.843Z,25.35
2022-09-04T12:17:57.835Z,25.34
2022-09-04T12:19:29.504Z,25.33
2022-09-04T12:20:58.946Z,25.38
2022-09-04T12:22:19.134Z,25.40
2022-09-04T12:23:55.886Z,25.44
2022-09-04T12:25:29.595Z,25.46
2022-09-04T12:27:05.171Z,25.48
2022-09-04T12:28:42.772Z,25.51
2022-09-04T12:30:09.895Z,25.52
2022-09-04T12:31:46.996Z,25.56
2022-09-04T12:33:33.762Z,25.59
2022-09-04T12:35:11.554Z,25.62
2022-09-04T12:37:01.131Z,25.64
2022-09-04T12:38:38.654Z,25.62
2022-09-04T12:40:22.084Z,25.65
2022-09-04T12:41:32.284Z,25.64
2022-09-04T12:42:42.944Z,25.63
2022-09-04T12:43:58.851Z,25.61
2022-09-04T12:45:11.682Z,25.60
2022-09-04T12:46:25.180Z,25.57
2022-09-04T12:47:41.676Z,25.56
2022-09-04T12:49:01.655Z,25.55
2022-09-04T12:50:22.104Z,25.53
2022-09-04T12:51:25.299Z,25.55
2022-09-04T12:52:43.021Z,25.57
2022-09-04T12:54:24.968Z,25.56
2022-09-04T12:55:38.488Z,25.56
2022-09-04T12:56:49.487Z,25.57
2022-09-04T12:58:06.447Z,25.61
2022-09-04T12:59:33.628Z,25.65
2022-09-04T13:00:48.732Z,25.68
2022-09-04T13:02:02.899Z,25.71
2022-09-04T13:03:17.326Z,25.74
2022-09-04T13:04:27.604Z,25.78
2022-09-04T13:05:52.907Z,25.82
2022-09-04T13:07:16.101Z,25.90
2022-09-04T13:08:29.979Z,25.95
2022-09-04T13:09:53.025Z,26.03
2022-09-04T13:11:08.820Z,26.10
2022-09-04T13:12:28.202Z,26.22
2022-09-04T13:13:43.304Z,26.30
2022-09-04T13:15:00.574Z,26.37
2022-09-04T13:16:09.377Z,26.50
2022-09-04T13:17:20.851Z,26.63
2022-09-04T13:18:36.192Z,26.78
2022-09-04T13:19:46.059Z,26.93
2022-09-04T13:20:57.806Z,27.06
2022-09-04T13:22:14.632Z,27.24
2022-09-04T13:23:28.848Z,27.41
2022-09-04T13:24:53.217Z,27.52
2022-09-04T13:26:13.110Z,27.55
2022-09-04T13:27:34.249Z,27.53
2022-09-04T13:28:48.336Z,27.47
2022-09-04T13:30:03.967Z,27.41
2022-09-04T13:31:27.703Z,27.36
2022-09-04T13:33:13.758Z,27.27
2022-09-04T13:34:29.084Z,27.18
2022-09-04T13:35:49.542Z,27.09
2022-09-04T13:37:04.449Z,27.07
2022-09-04T13:38:32.203Z,27.00
2022-09-04T13:40:03.631Z,26.93
2022-09-04T13:41:36.617Z,26.78
2022-09-04T13:43:20.599Z,26.64
2022-09-04T13:44:54.601Z,26.43
2022-09-04T13:46:01.617Z,26.29
2022-09-04T13:47:09.052Z,26.19
2022-09-04T13:48:15.111Z,26.06
2022-09-04T13:49:24.842Z,26.02
2022-09-04T13:50:33.991Z,25.94
2022-09-04T13:51:44.766Z,25.87
2022-09-04T13:52:55.716Z,25.84
2022-09-04T13:54:08.388Z,25.84
2022-09-04T13:55:16.049Z,25.83
2022-09-04T13:56:28.303Z,25.81
2022-09-04T13:57:36.482Z,25.81
2022-09-04T13:58:47.719Z,25.81
2022-09-04T13:59:50.738Z,25.80
2022-09-04T14:00:59.361Z,25.79
2022-09-04T14:02:07.065Z,25.78
2022-09-04T14:03:14.006Z,25.77
2022-09-04T14:04:26.607Z,25.76
2022-09-04T14:05:34.178Z,25.74
2022-09-04T14:06:37.197Z,25.70
2022-09-04T14:07:45.239Z,25.64
2022-09-04T14:08:59.695Z,25.58
2022-09-04T14:10:13.006Z,25.50
2022-09-04T14:12:01.014Z,25.44
2022-09-04T14:13:15.547Z,25.36
2022-09-04T14:14:45.242Z,25.32
2022-09-04T14:16:03.988Z,25.30
2022-09-04T14:17:08.021Z,25.27
2022-09-04T14:18:22.917Z,25.24
2022-09-04T14:19:42.611Z,25.24
2022-09-04T14:21:01.048Z,25.26
2022-09-04T14:22:33.445Z,25.29
2022-09-04T14:23:47.693Z,25.35
2022-09-04T14:24:58.858Z,25.42
2022-09-04T14:26:12.579Z,25.41
2022-09-04T14:27:20.516Z,25.56
2022-09-04T14:28:34.626Z,25.63
2022-09-04T14:29:45.400Z,25.68
2022-09-04T14:31:02.290Z,25.73
2022-09-04T14:32:22.583Z,25.80
2022-09-04T14:33:34.740Z,25.89
2022-09-04T14:34:50.138Z,25.97
2022-09-04T14:36:04.948Z,26.03
2022-09-04T14:37:17.855Z,26.06
2022-09-04T14:38:41.208Z,26.07
2022-09-04T14:39:49.425Z,26.06
2022-09-04T14:41:02.352Z,26.07
2022-09-04T14:42:30.744Z,26.02
2022-09-04T14:43:44.646Z,25.99
2022-09-04T14:45:02.602Z,25.97
2022-09-04T14:46:15.200Z,25.96
2022-09-04T14:47:32.090Z,25.95
2022-09-04T14:48:40.475Z,25.93
2022-09-04T14:49:47.925Z,25.93
2022-09-04T14:50:53.747Z,25.94
2022-09-04T14:51:57.320Z,25.92
2022-09-04T14:53:03.747Z,25.97
2022-09-04T14:54:10.322Z,25.96
2022-09-04T14:55:16.579Z,25.96
2022-09-04T14:56:27.189Z,25.97
2022-09-04T14:57:37.765Z,25.99
2022-09-04T14:58:48.944Z,26.02
2022-09-04T15:00:04.919Z,26.06
2022-09-04T15:01:17.074Z,26.10
2022-09-04T15:02:29.341Z,26.15
2022-09-04T15:03:37.508Z,26.19
2022-09-04T15:04:47.056Z,26.23
2022-09-04T15:05:56.672Z,26.23
2022-09-04T15:07:17.271Z,26.23
2022-09-04T15:08:27.841Z,26.27
2022-09-04T15:09:35.101Z,26.37
2022-09-04T15:10:50.559Z,26.44
2022-09-04T15:12:14.408Z,26.52
2022-09-04T15:13:35.330Z,26.54
2022-09-04T15:14:40.917Z,26.55
2022-09-04T15:15:46.927Z,26.56
2022-09-04T15:16:54.418Z,26.60
2022-09-04T15:18:06.614Z,26.66
2022-09-04T15:19:27.052Z,26.71
2022-09-04T15:20:33.905Z,26.76
2022-09-04T15:21:47.280Z,26.78
2022-09-04T15:22:56.645Z,26.85
2022-09-04T15:24:08.630Z,26.96
2022-09-04T15:25:57.384Z,27.08
2022-09-04T15:27:03.686Z,27.27
2022-09-04T15:28:12.873Z,27.37
2022-09-04T15:29:25.887Z,27.44
2022-09-04T15:30:35.711Z,27.47
2022-09-04T15:31:43.445Z,27.46
2022-09-04T15:32:47.383Z,27.44
2022-09-04T15:33:50.511Z,27.41
2022-09-04T15:35:06.792Z,27.36
2022-09-04T15:36:16.215Z,27.30
2022-09-04T15:37:24.661Z,27.27
2022-09-04T15:38:28.052Z,27.24
2022-09-04T15:39:39.994Z,27.18
2022-09-04T15:41:12.610Z,27.21
2022-09-04T15:42:31.444Z,27.23
2022-09-04T15:43:38.917Z,27.25
2022-09-04T15:44:46.084Z,27.25
2022-09-04T15:46:00.038Z,27.25
2022-09-04T15:47:08.018Z,27.25
2022-09-04T15:48:28.466Z,27.26
2022-09-04T15:49:43.982Z,27.28
2022-09-04T15:51:03.234Z,27.30
2022-09-04T15:52:21.486Z,27.32
2022-09-04T15:53:27.604Z,27.36
2022-09-04T15:54:37.284Z,27.41
2022-09-04T15:55:42.701Z,27.47
2022-09-04T15:56:55.580Z,27.53
2022-09-04T15:58:08.524Z,27.59
2022-09-04T15:59:16.143Z,27.65
2022-09-04T16:00:24.130Z,27.66
2022-09-04T16:01:31.005Z,27.63
2022-09-04T16:02:46.537Z,27.58
2022-09-04T16:04:01.166Z,27.48
2022-09-04T16:05:12.149Z,27.36
2022-09-04T16:06:19.697Z,27.24
2022-09-04T16:07:35.775Z,27.13
2022-09-04T16:08:46.402Z,27.02
2022-09-04T16:09:55.216Z,26.91
2022-09-04T16:11:03.456Z,26.79
2022-09-04T16:12:14.713Z,26.67
2022-09-04T16:13:40.671Z,26.53
2022-09-04T16:14:48.350Z,26.43
2022-09-04T16:15:53.117Z,26.36
2022-09-04T16:17:05.029Z,26.27
2022-09-04T16:18:15.358Z,26.17
2022-09-04T16:19:28.035Z,26.12
2022-09-04T16:20:36.366Z,26.04
2022-09-04T16:21:47.937Z,25.98
2022-09-04T16:22:53.215Z,25.89
2022-09-04T16:23:59.732Z,25.86
2022-09-04T16:25:08.902Z,25.78
2022-09-04T16:26:15.472Z,25.72
2022-09-04T16:27:24.038Z,25.68
2022-09-04T16:28:31.362Z,25.62
2022-09-04T16:29:37.979Z,25.55
2022-09-04T16:30:44.716Z,25.47
2022-09-04T16:31:53.335Z,25.41
2022-09-04T16:32:57.115Z,25.37
2022-09-04T16:34:03.591Z,25.32
2022-09-04T16:35:12.437Z,25.25
2022-09-04T16:36:21.610Z,25.19
2022-09-04T16:37:30.565Z,25.13
2022-09-04T16:38:47.430Z,25.06
2022-09-04T16:40:01.079Z,24.99
2022-09-04T16:41:12.116Z,24.91
2022-09-04T16:42:21.808Z,24.86
2022-09-04T16:43:28.621Z,24.79
2022-09-04T16:44:37.076Z,24.72
2022-09-04T16:45:49.680Z,24.64
2022-09-04T16:47:04.548Z,24.56
2022-09-04T16:48:34.635Z,24.48
2022-09-04T16:49:48.389Z,24.39
2022-09-04T16:50:55.943Z,24.33
2022-09-04T16:52:22.100Z,24.24
2022-09-04T16:53:35.133Z,24.18